createdAt,value
2023-05-19T00:01:37.639Z,8.50
2023-05-19T00:04:07.086Z,11.52
2023-05-19T00:06:36.338Z,9.50
2023-05-19T00:09:05.855Z,10.57
2023-05-19T00:11:36.168Z,8.35
2023-05-19T00:14:06.094Z,9.88
2023-05-19T00:16:36.204Z,15.60
2023-05-19T00:19:05.622Z,9.30
2023-05-19T00:21:33.825Z,11.65
2023-05-19T00:24:01.908Z,11.52
2023-05-19T00:26:29.871Z,8.35
2023-05-19T00:28:57.793Z,8.35
2023-05-19T00:31:26.119Z,11.38
2023-05-19T00:33:55.535Z,11.38
2023-05-19T00:36:23.464Z,11.38
2023-05-19T00:38:51.951Z,8.38
2023-05-19T00:41:19.864Z,9.13
2023-05-19T00:43:47.895Z,9.55
2023-05-19T00:46:15.894Z,10.20
2023-05-19T00:48:44.746Z,7.93
2023-05-19T00:51:16.955Z,12.18
2023-05-19T00:53:48.582Z,11.52
2023-05-19T00:56:17.335Z,9.73
2023-05-19T00:58:45.810Z,9.98
2023-05-19T01:01:14.750Z,13.40
2023-05-19T01:03:43.281Z,12.10
2023-05-19T01:06:12.272Z,11.95
2023-05-19T01:08:41.715Z,12.95
2023-05-19T01:11:10.362Z,9.73
2023-05-19T01:13:41.262Z,10.75
2023-05-19T01:16:13.869Z,11.05
2023-05-19T01:18:46.686Z,9.65
2023-05-19T01:21:49.514Z,11.73
2023-05-19T01:24:32.355Z,10.32
2023-05-19T01:27:31.258Z,13.77
2023-05-19T01:30:23.253Z,11.63
2023-05-19T01:32:53.316Z,10.20
2023-05-19T01:35:22.895Z,11.05
2023-05-19T01:37:52.752Z,13.68
2023-05-19T01:40:21.298Z,12.00
2023-05-19T01:42:50.091Z,12.90
2023-05-19T01:45:18.330Z,13.98
2023-05-19T01:47:49.791Z,9.93
2023-05-19T01:50:17.730Z,9.90
2023-05-19T01:52:45.682Z,9.40
2023-05-19T01:55:13.774Z,10.43
2023-05-19T01:57:49.448Z,11.80
2023-05-19T02:00:22.336Z,12.27
2023-05-19T02:02:59.046Z,11.55
2023-05-19T02:05:32.959Z,13.10
2023-05-19T02:08:07.340Z,11.23
2023-05-19T02:10:38.676Z,12.60
2023-05-19T02:13:08.621Z,8.30
2023-05-19T02:15:40.511Z,12.25
2023-05-19T02:18:11.549Z,19.35
2023-05-19T02:20:40.763Z,10.38
2023-05-19T02:23:08.680Z,11.30
2023-05-19T02:25:36.599Z,11.05
2023-05-19T02:28:04.555Z,12.20
2023-05-19T02:30:32.741Z,10.20
2023-05-19T02:33:00.997Z,9.85
2023-05-19T02:35:30.300Z,11.85
2023-05-19T02:37:58.889Z,10.27
2023-05-19T02:40:26.870Z,10.38
2023-05-19T02:42:54.858Z,8.82
2023-05-19T02:45:22.794Z,9.13
2023-05-19T02:47:50.893Z,11.02
2023-05-19T02:50:18.806Z,12.25
2023-05-19T02:52:48.106Z,11.15
2023-05-19T02:55:17.604Z,14.68
2023-05-19T02:57:45.576Z,12.40
2023-05-19T03:00:14.470Z,11.45
2023-05-19T03:02:44.202Z,10.15
2023-05-19T03:05:12.309Z,14.30
2023-05-19T03:07:40.254Z,10.85
2023-05-19T03:10:10.456Z,11.93
2023-05-19T03:12:38.447Z,12.77
2023-05-19T03:15:07.253Z,20.02
2023-05-19T03:17:36.394Z,11.65
2023-05-19T03:20:06.345Z,12.80
2023-05-19T03:22:34.312Z,12.32
2023-05-19T03:25:02.398Z,12.40
2023-05-19T03:27:31.885Z,11.02
2023-05-19T03:29:59.793Z,12.02
2023-05-19T03:32:27.807Z,11.68
2023-05-19T03:34:55.795Z,11.05
2023-05-19T03:37:23.723Z,11.95
2023-05-19T03:39:51.587Z,13.27
2023-05-19T03:42:19.613Z,13.80
2023-05-19T03:44:48.950Z,11.43
2023-05-19T03:47:17.119Z,12.85
2023-05-19T03:49:45.001Z,12.95
2023-05-19T03:52:12.985Z,13.48
2023-05-19T03:54:42.807Z,10.68
2023-05-19T03:57:11.057Z,14.30
2023-05-19T03:59:41.300Z,11.82
2023-05-19T04:02:10.768Z,13.07
2023-05-19T04:04:39.155Z,11.18
2023-05-19T04:07:07.415Z,11.00
2023-05-19T04:09:35.594Z,11.80
2023-05-19T04:12:03.826Z,14.80
2023-05-19T04:14:31.707Z,14.15
2023-05-19T04:16:59.985Z,11.98
2023-05-19T04:19:29.315Z,13.85
2023-05-19T04:21:57.786Z,14.20
2023-05-19T04:24:25.689Z,12.15
2023-05-19T04:26:53.835Z,15.57
2023-05-19T04:29:23.590Z,15.00
2023-05-19T04:31:52.741Z,11.95
2023-05-19T04:34:20.679Z,14.35
2023-05-19T04:36:52.397Z,13.35
2023-05-19T04:39:21.661Z,12.48
2023-05-19T04:41:49.528Z,11.38
2023-05-19T04:44:18.589Z,15.13
2023-05-19T04:46:46.623Z,16.20
2023-05-19T04:49:14.555Z,11.95
2023-05-19T04:51:42.781Z,12.85
2023-05-19T04:54:12.065Z,12.48
2023-05-19T04:56:40.472Z,12.93
2023-05-19T04:59:09.889Z,12.20
2023-05-19T05:01:40.884Z,11.55
2023-05-19T05:04:08.920Z,12.07
2023-05-19T05:06:38.724Z,15.35
2023-05-19T05:09:06.698Z,12.70
2023-05-19T05:11:36.833Z,11.68
2023-05-19T05:14:05.252Z,11.70
2023-05-19T05:16:34.085Z,10.63
2023-05-19T05:19:02.449Z,9.93
2023-05-19T05:21:31.818Z,12.23
2023-05-19T05:24:00.291Z,10.55
2023-05-19T05:26:32.040Z,8.88
2023-05-19T05:29:01.244Z,13.20
2023-05-19T05:31:29.144Z,11.23
2023-05-19T05:33:57.220Z,8.98
2023-05-19T05:36:25.310Z,10.48
2023-05-19T05:38:53.234Z,13.52
2023-05-19T05:41:22.173Z,7.57
2023-05-19T05:43:50.085Z,8.93
2023-05-19T05:46:21.515Z,7.18
2023-05-19T05:48:49.950Z,8.02
2023-05-19T05:51:18.782Z,9.63
2023-05-19T05:53:51.051Z,10.43
2023-05-19T05:56:19.496Z,12.55
2023-05-19T05:58:47.575Z,9.27
2023-05-19T06:01:17.744Z,10.75
2023-05-19T06:03:47.051Z,9.25
2023-05-19T06:06:15.047Z,7.82
2023-05-19T06:08:43.138Z,12.98
2023-05-19T06:11:11.158Z,9.57
2023-05-19T06:13:41.261Z,7.95
2023-05-19T06:16:09.283Z,10.02
2023-05-19T06:18:37.518Z,10.05
2023-05-19T06:21:07.114Z,8.35
2023-05-19T06:23:35.116Z,9.43
2023-05-19T06:26:03.184Z,11.35
2023-05-19T06:28:31.686Z,10.85
2023-05-19T06:31:00.075Z,12.52
2023-05-19T06:33:29.337Z,12.30
2023-05-19T06:35:57.351Z,9.50
2023-05-19T06:38:26.686Z,10.30
2023-05-19T06:40:54.596Z,10.50
2023-05-19T06:43:22.535Z,11.52
2023-05-19T06:45:50.616Z,9.77
2023-05-19T06:48:18.490Z,11.45
2023-05-19T06:50:46.494Z,13.00
2023-05-19T06:53:14.402Z,11.73
2023-05-19T06:55:57.511Z,12.48
2023-05-19T06:58:27.402Z,11.27
2023-05-19T07:00:55.340Z,11.63
2023-05-19T07:03:23.460Z,13.00
2023-05-19T07:05:51.620Z,13.65
2023-05-19T07:08:19.507Z,13.13
2023-05-19T07:10:48.775Z,10.05
2023-05-19T07:13:16.885Z,11.90
2023-05-19T07:15:45.129Z,11.55
2023-05-19T07:18:13.181Z,9.90
2023-05-19T07:20:41.136Z,10.70
2023-05-19T07:23:09.020Z,11.02
2023-05-19T07:25:37.047Z,10.70
2023-05-19T07:28:06.424Z,10.20
2023-05-19T07:30:34.685Z,12.40
2023-05-19T07:33:02.998Z,9.85
2023-05-19T07:35:31.138Z,11.38
2023-05-19T07:37:59.039Z,12.35
2023-05-19T07:40:27.005Z,12.38
2023-05-19T07:42:55.075Z,9.30
2023-05-19T07:45:24.501Z,11.98
2023-05-19T07:47:52.637Z,13.32
2023-05-19T07:50:20.640Z,13.35
2023-05-19T07:52:48.583Z,9.25
2023-05-19T07:55:16.574Z,15.02
2023-05-19T07:57:44.657Z,15.25
2023-05-19T08:00:16.417Z,11.90
2023-05-19T08:02:46.045Z,10.18
2023-05-19T08:05:14.334Z,10.20
2023-05-19T08:07:42.373Z,16.90
2023-05-19T08:10:10.628Z,17.02
2023-05-19T08:12:38.687Z,11.10
2023-05-19T08:15:07.495Z,12.93
2023-05-19T08:17:35.450Z,12.48
2023-05-19T08:20:05.285Z,12.52
2023-05-19T08:22:33.315Z,12.20
2023-05-19T08:25:01.457Z,11.55
2023-05-19T08:27:31.562Z,10.30
2023-05-19T08:30:03.890Z,9.88
2023-05-19T08:32:31.974Z,9.70
2023-05-19T08:35:02.352Z,9.85
2023-05-19T08:37:33.994Z,10.90
2023-05-19T08:40:04.595Z,11.95
2023-05-19T08:42:33.182Z,11.88
2023-05-19T08:45:01.192Z,11.13
2023-05-19T08:47:29.854Z,12.68
2023-05-19T08:50:02.740Z,7.45
2023-05-19T08:52:36.214Z,8.85
2023-05-19T08:55:06.452Z,8.25
2023-05-19T08:57:34.794Z,11.10
2023-05-19T09:00:06.663Z,8.68
2023-05-19T09:02:34.692Z,8.43
2023-05-19T09:05:03.011Z,9.05
2023-05-19T09:07:34.845Z,7.93
2023-05-19T09:10:03.156Z,12.65
2023-05-19T09:12:31.594Z,10.65
2023-05-19T09:14:59.582Z,10.88
2023-05-19T09:17:27.514Z,8.98
2023-05-19T09:19:55.443Z,9.15
2023-05-19T09:22:23.393Z,11.40
2023-05-19T09:24:52.823Z,13.85
2023-05-19T09:27:23.345Z,8.32
2023-05-19T09:29:51.301Z,6.82
2023-05-19T09:32:26.089Z,5.90
2023-05-19T09:34:54.715Z,6.88
2023-05-19T09:37:26.703Z,8.05
2023-05-19T09:39:56.120Z,6.82
2023-05-19T09:42:28.401Z,5.70
2023-05-19T09:45:04.352Z,6.40
2023-05-19T09:47:35.436Z,6.65
2023-05-19T09:50:03.919Z,6.50
2023-05-19T09:52:36.895Z,4.72
2023-05-19T09:55:07.312Z,9.45
2023-05-19T09:57:40.193Z,5.00
2023-05-19T10:00:12.706Z,7.47
2023-05-19T10:02:43.845Z,6.70
2023-05-19T10:05:13.061Z,7.47
2023-05-19T10:07:48.579Z,8.38
2023-05-19T10:10:20.016Z,4.70
2023-05-19T10:12:48.698Z,6.85
2023-05-19T10:15:17.997Z,6.72
2023-05-19T10:17:46.217Z,11.02
2023-05-19T10:20:15.380Z,6.20
2023-05-19T10:22:45.563Z,5.93
2023-05-19T10:25:15.245Z,5.68
2023-05-19T10:27:48.412Z,4.65
2023-05-19T10:30:21.665Z,5.65
2023-05-19T10:32:50.021Z,6.05
2023-05-19T10:35:29.546Z,5.75
2023-05-19T10:38:02.573Z,6.55
2023-05-19T10:40:38.333Z,7.10
2023-05-19T10:43:17.047Z,6.43
2023-05-19T10:45:49.371Z,8.23
2023-05-19T10:48:17.785Z,4.32
2023-05-19T10:50:49.034Z,8.38
2023-05-19T10:53:18.374Z,6.82
2023-05-19T10:55:48.533Z,5.63
2023-05-19T10:58:38.042Z,3.25
2023-05-19T11:01:11.833Z,4.25
2023-05-19T11:03:49.105Z,6.03
2023-05-19T11:06:26.376Z,5.28
2023-05-19T11:08:55.976Z,5.85
2023-05-19T11:11:23.861Z,7.28
2023-05-19T11:13:55.040Z,5.85
2023-05-19T11:16:30.089Z,6.18
2023-05-19T11:19:00.230Z,6.50
2023-05-19T11:21:42.765Z,5.13
2023-05-19T11:24:10.902Z,4.47
2023-05-19T11:26:43.215Z,5.53
2023-05-19T11:29:13.091Z,6.10
2023-05-19T11:31:41.466Z,5.55
2023-05-19T11:34:09.999Z,6.32
2023-05-19T11:36:38.511Z,7.22
2023-05-19T11:39:07.165Z,6.15
2023-05-19T11:41:40.543Z,6.50
2023-05-19T11:44:12.786Z,7.90
2023-05-19T11:46:40.780Z,4.35
2023-05-19T11:49:08.805Z,7.10
2023-05-19T11:51:38.330Z,4.85
2023-05-19T11:54:06.562Z,7.32
2023-05-19T11:56:35.633Z,7.22
2023-05-19T11:59:03.532Z,5.90
2023-05-19T12:01:33.321Z,6.25
2023-05-19T12:04:01.377Z,6.38
2023-05-19T12:06:29.830Z,7.93
2023-05-19T12:08:57.851Z,7.90
2023-05-19T12:11:25.865Z,4.63
2023-05-19T12:13:56.473Z,6.55
2023-05-19T12:16:24.609Z,6.82
2023-05-19T12:18:54.173Z,5.13
2023-05-19T12:21:22.236Z,7.70
2023-05-19T12:23:50.212Z,5.38
2023-05-19T12:26:20.052Z,5.85
2023-05-19T12:28:47.970Z,7.43
2023-05-19T12:31:15.979Z,7.65
2023-05-19T12:33:44.155Z,9.13
2023-05-19T12:36:13.953Z,8.35
2023-05-19T12:38:42.410Z,4.13
2023-05-19T12:41:12.438Z,6.63
2023-05-19T12:43:40.527Z,7.28
2023-05-19T12:46:12.280Z,7.57
2023-05-19T12:48:42.410Z,7.07
2023-05-19T12:51:10.809Z,5.25
2023-05-19T12:53:40.370Z,6.15
2023-05-19T12:56:17.511Z,5.75
2023-05-19T12:58:46.063Z,4.50
2023-05-19T13:01:17.973Z,5.82
2023-05-19T13:03:48.654Z,4.90
2023-05-19T13:06:16.833Z,5.32
2023-05-19T13:08:47.958Z,5.47
2023-05-19T13:11:15.921Z,6.88
2023-05-19T13:13:43.861Z,5.90
2023-05-19T13:16:11.874Z,5.50
2023-05-19T13:18:39.766Z,6.72
2023-05-19T13:21:07.809Z,6.03
2023-05-19T13:23:35.891Z,3.83
2023-05-19T13:26:06.394Z,7.13
2023-05-19T13:28:34.880Z,6.28
2023-05-19T13:31:02.954Z,7.10
2023-05-19T13:33:30.915Z,6.00
2023-05-19T13:35:58.873Z,4.40
2023-05-19T13:38:26.877Z,4.78
2023-05-19T13:40:54.810Z,6.30
2023-05-19T13:43:24.106Z,4.53
2023-05-19T13:45:52.103Z,3.92
2023-05-19T13:48:20.153Z,7.40
2023-05-19T13:50:48.219Z,4.70
2023-05-19T13:53:16.094Z,4.22
2023-05-19T13:55:44.079Z,6.38
2023-05-19T13:58:13.726Z,5.70
2023-05-19T14:00:43.282Z,3.97
2023-05-19T14:03:11.666Z,4.72
2023-05-19T14:05:39.631Z,7.13
2023-05-19T14:08:07.608Z,4.60
2023-05-19T14:10:36.003Z,5.75
2023-05-19T14:13:30.383Z,5.80
2023-05-19T14:15:54.026Z,7.85
2023-05-19T14:18:22.056Z,6.53
2023-05-19T14:20:50.039Z,5.45
2023-05-19T14:23:21.550Z,5.03
2023-05-19T14:25:49.479Z,7.85
2023-05-19T14:28:19.164Z,5.53
2023-05-19T14:30:47.666Z,6.72
2023-05-19T14:33:17.067Z,8.23
2023-05-19T14:35:45.009Z,4.40
2023-05-19T14:38:12.887Z,5.20
2023-05-19T14:40:41.493Z,4.10
2023-05-19T14:43:09.601Z,8.40
2023-05-19T14:45:37.486Z,5.32
2023-05-19T14:48:06.702Z,3.95
2023-05-19T14:50:36.176Z,6.05
2023-05-19T14:53:04.057Z,6.57
2023-05-19T14:55:32.001Z,3.88
2023-05-19T14:58:03.377Z,5.82
2023-05-19T15:00:32.677Z,6.60
2023-05-19T15:03:00.945Z,4.88
2023-05-19T15:05:28.949Z,6.22
2023-05-19T15:07:58.169Z,7.38
2023-05-19T15:10:26.315Z,6.97
2023-05-19T15:12:54.235Z,6.80
2023-05-19T15:15:22.144Z,4.03
2023-05-19T15:17:50.142Z,6.35
2023-05-19T15:20:18.141Z,7.28
2023-05-19T15:22:46.093Z,5.63
2023-05-19T15:25:15.355Z,4.65
2023-05-19T15:27:43.344Z,6.75
2023-05-19T15:30:11.818Z,5.25
2023-05-19T15:32:39.742Z,6.40
2023-05-19T15:35:08.877Z,5.97
2023-05-19T15:37:37.004Z,5.15
2023-05-19T15:40:05.555Z,6.10
2023-05-19T15:42:34.815Z,4.63
2023-05-19T15:45:02.721Z,6.43
2023-05-19T15:47:30.735Z,3.58
2023-05-19T15:49:58.754Z,3.70
2023-05-19T15:52:26.817Z,5.28
2023-05-19T15:54:55.208Z,6.47
2023-05-19T15:57:25.445Z,6.00
2023-05-19T15:59:54.723Z,3.70
2023-05-19T16:02:22.824Z,5.75
2023-05-19T16:04:50.687Z,14.43
2023-05-19T16:07:18.615Z,3.53
2023-05-19T16:09:46.450Z,10.35
2023-05-19T16:12:14.575Z,9.45
2023-05-19T16:14:42.449Z,4.32
2023-05-19T16:17:13.757Z,4.35
2023-05-19T16:19:41.773Z,9.15
2023-05-19T16:22:09.671Z,11.50
2023-05-19T16:24:37.594Z,7.18
2023-05-19T16:27:06.191Z,4.13
2023-05-19T16:29:34.126Z,4.63
2023-05-19T16:32:02.198Z,6.15
2023-05-19T16:34:31.548Z,6.70
2023-05-19T16:36:59.668Z,6.68
2023-05-19T16:39:27.610Z,4.22
2023-05-19T16:41:55.617Z,6.10
2023-05-19T16:44:26.337Z,6.13
2023-05-19T16:46:54.313Z,5.93
2023-05-19T16:49:22.342Z,7.70
2023-05-19T16:51:52.924Z,4.90
2023-05-19T16:54:21.937Z,5.70
2023-05-19T16:56:51.197Z,5.30
2023-05-19T16:59:19.246Z,3.45
2023-05-19T17:01:47.243Z,4.22
2023-05-19T17:04:15.359Z,3.85
2023-05-19T17:06:43.349Z,4.95
2023-05-19T17:09:12.702Z,6.13
2023-05-19T17:11:40.712Z,3.90
2023-05-19T17:14:09.278Z,5.00
2023-05-19T17:16:37.396Z,5.57
2023-05-19T17:19:05.631Z,4.85
2023-05-19T17:21:33.676Z,4.43
2023-05-19T17:24:01.549Z,4.57
2023-05-19T17:26:30.900Z,5.18
2023-05-19T17:28:58.804Z,4.30
2023-05-19T17:31:26.761Z,4.72
2023-05-19T17:33:54.737Z,3.83
2023-05-19T17:36:22.768Z,4.28
2023-05-19T17:38:50.846Z,5.28
2023-05-19T17:41:18.814Z,5.57
2023-05-19T17:43:53.319Z,3.55
2023-05-19T17:46:21.296Z,3.75
2023-05-19T17:49:01.478Z,6.15
2023-05-19T17:51:29.991Z,5.97
2023-05-19T17:53:58.355Z,7.93
2023-05-19T17:56:26.768Z,3.70
2023-05-19T17:58:56.955Z,5.22
2023-05-19T18:01:25.874Z,4.80
2023-05-19T18:03:54.622Z,7.28
2023-05-19T18:06:24.382Z,4.95
2023-05-19T18:08:53.280Z,4.40
2023-05-19T18:11:21.710Z,5.72
2023-05-19T18:13:49.666Z,3.72
2023-05-19T18:16:19.101Z,5.50
2023-05-19T18:18:50.444Z,5.65
2023-05-19T18:21:18.908Z,5.38
2023-05-19T18:23:49.627Z,5.75
2023-05-19T18:26:19.214Z,8.40
2023-05-19T18:28:47.103Z,5.75
2023-05-19T18:31:19.380Z,9.57
2023-05-19T18:33:49.102Z,4.45
2023-05-19T18:36:17.531Z,6.88
2023-05-19T18:38:47.105Z,6.75
2023-05-19T18:41:15.640Z,8.30
2023-05-19T18:43:43.584Z,4.85
2023-05-19T18:46:13.325Z,5.50
2023-05-19T18:48:41.537Z,7.32
2023-05-19T18:51:10.873Z,5.00
2023-05-19T18:53:38.845Z,6.65
2023-05-19T18:56:07.543Z,3.92
2023-05-19T18:58:35.524Z,4.43
2023-05-19T19:01:03.459Z,4.32
2023-05-19T19:03:31.476Z,3.55
2023-05-19T19:06:00.477Z,2.97
2023-05-19T19:08:29.800Z,4.60
2023-05-19T19:11:01.095Z,5.45
2023-05-19T19:13:29.016Z,5.00
2023-05-19T19:15:57.096Z,4.22
2023-05-19T19:18:26.125Z,3.17
2023-05-19T19:20:54.934Z,3.97
2023-05-19T19:23:22.803Z,7.40
2023-05-19T19:25:52.207Z,7.80
2023-05-19T19:28:20.131Z,6.25
2023-05-19T19:30:48.039Z,2.92
2023-05-19T19:33:16.150Z,4.82
2023-05-19T19:35:46.234Z,7.38
2023-05-19T19:38:14.234Z,5.63
2023-05-19T19:40:42.652Z,5.85
2023-05-19T19:43:14.295Z,5.22
2023-05-19T19:45:42.240Z,8.43
2023-05-19T19:48:10.235Z,5.50
2023-05-19T19:50:38.211Z,5.28
2023-05-19T19:53:06.226Z,4.22
2023-05-19T19:55:34.172Z,9.40
2023-05-19T19:58:02.068Z,5.05
2023-05-19T20:00:31.600Z,3.63
2023-05-19T20:05:30.792Z,3.00
2023-05-19T20:07:58.797Z,4.78
2023-05-19T20:10:26.734Z,2.90
2023-05-19T20:12:54.732Z,2.40
2023-05-19T20:15:23.104Z,6.63
2023-05-19T20:17:52.466Z,3.75
2023-05-19T20:20:20.573Z,5.15
2023-05-19T20:22:50.729Z,5.43
2023-05-19T20:25:18.655Z,4.47
2023-05-19T20:27:46.559Z,5.80
2023-05-19T20:30:14.396Z,4.75
2023-05-19T20:32:42.379Z,9.20
2023-05-19T20:35:11.888Z,8.98
2023-05-19T20:37:39.855Z,7.53
2023-05-19T20:40:08.940Z,6.70
2023-05-19T20:42:39.857Z,5.82
2023-05-19T20:45:08.951Z,4.10
2023-05-19T20:47:36.888Z,4.13
2023-05-19T20:50:05.190Z,4.63
2023-05-19T20:52:34.440Z,3.33
2023-05-19T20:55:02.438Z,6.18
2023-05-19T20:57:30.415Z,4.22
2023-05-19T20:59:58.418Z,7.50
2023-05-19T21:02:26.395Z,5.93
2023-05-19T21:04:54.407Z,6.25
2023-05-19T21:07:22.679Z,3.80
2023-05-19T21:09:54.240Z,5.70
2023-05-19T21:12:25.049Z,7.13
2023-05-19T21:14:53.253Z,6.72
2023-05-19T21:17:21.459Z,3.65
2023-05-19T21:19:50.702Z,6.15
2023-05-19T21:22:18.755Z,5.70
2023-05-19T21:24:46.697Z,7.90
2023-05-19T21:27:18.483Z,7.63
2023-05-19T21:29:52.241Z,5.13
2023-05-19T21:32:20.401Z,6.80
2023-05-19T21:34:48.721Z,7.25
2023-05-19T21:37:17.726Z,7.65
2023-05-19T21:39:45.860Z,4.18
2023-05-19T21:42:15.065Z,5.95
2023-05-19T21:44:42.988Z,6.22
2023-05-19T21:47:12.899Z,6.22
2023-05-19T21:49:41.148Z,9.07
2023-05-19T21:52:09.202Z,7.70
2023-05-19T21:54:37.405Z,4.80
2023-05-19T21:57:05.646Z,5.50
2023-05-19T21:59:35.104Z,5.25
2023-05-19T22:02:03.233Z,4.35
2023-05-19T22:04:31.583Z,5.68
2023-05-19T22:06:59.586Z,3.78
2023-05-19T22:09:27.559Z,9.43
2023-05-19T22:11:55.445Z,6.20
2023-05-19T22:14:23.381Z,5.80
2023-05-19T22:16:52.736Z,6.00
2023-05-19T22:19:21.096Z,6.55
2023-05-19T22:21:51.837Z,5.85
2023-05-19T22:24:26.938Z,8.65
2023-05-19T22:26:54.908Z,3.95
2023-05-19T22:29:22.792Z,4.43
2023-05-19T22:31:53.915Z,5.80
2023-05-19T22:34:22.041Z,5.35
2023-05-19T22:36:49.921Z,5.07
2023-05-19T22:39:17.855Z,8.10
2023-05-19T22:41:45.784Z,5.97
2023-05-19T22:44:16.188Z,5.22
2023-05-19T22:46:45.197Z,5.60
2023-05-19T22:49:14.447Z,8.43
2023-05-19T22:51:42.282Z,7.55
2023-05-19T22:54:10.755Z,5.53
2023-05-19T22:56:38.667Z,6.50
2023-05-19T22:59:06.628Z,7.30
2023-05-19T23:01:34.570Z,3.78
2023-05-19T23:04:02.519Z,7.72
2023-05-19T23:06:32.238Z,8.38
2023-05-19T23:09:01.367Z,5.07
2023-05-19T23:11:29.296Z,6.88
2023-05-19T23:13:57.357Z,8.07
2023-05-19T23:16:25.257Z,6.00
2023-05-19T23:18:53.256Z,7.53
2023-05-19T23:21:21.127Z,6.93
2023-05-19T23:23:50.654Z,7.05
2023-05-19T23:26:18.528Z,8.32
2023-05-19T23:28:47.079Z,6.18
2023-05-19T23:31:15.012Z,9.27
2023-05-19T23:33:42.962Z,4.63
2023-05-19T23:36:11.982Z,6.13
2023-05-19T23:38:40.147Z,4.53
2023-05-19T23:41:09.374Z,12.13
2023-05-19T23:43:37.840Z,8.48
2023-05-19T23:46:06.036Z,8.32
2023-05-19T23:48:36.679Z,5.35
2023-05-19T23:51:04.769Z,7.20
2023-05-19T23:53:32.789Z,7.18
2023-05-19T23:56:00.770Z,10.70
2023-05-19T23:58:30.039Z,5.72
